Terminal Aerodrome Forecast
Issued by NWS Upton, NY

Home | Current Version | Previous Version | Text Only | Print | Product List | Glossary On
Versions: 1 2 3 4 5 6 7 8 9 10 11 12 13 14 15 16 17 18 19 20 21 22 23 24 25 26 27 28 29 30 31 32 33 34 35 36
000
FTUS41 KOKX 250200 AAA
TAFJFK
TAF AMD
KJFK 250239Z 2503/2606 VRB03KT P6SM FEW050 SCT250
     FM250330 32010G18KT P6SM FEW150 SCT250
     FM250530 31007KT P6SM SKC
     FM251500 29011KT P6SM SKC
     FM251800 25013KT P6SM SCT050
     FM260400 26014KT P6SM BKN050=

USA.gov is the U.S. government's official web portal to all federal, state and local government web resources and services.